createdAt,value
2023-03-03T00:03:21.930Z,6.38
2023-03-03T00:05:49.833Z,5.78
2023-03-03T00:08:21.788Z,6.07
2023-03-03T00:10:49.748Z,6.28
2023-03-03T00:13:25.458Z,6.10
2023-03-03T00:16:26.119Z,5.72
2023-03-03T00:33:26.497Z,5.82
2023-03-03T00:52:51.501Z,5.22
2023-03-03T01:06:51.143Z,5.18
2023-03-03T01:09:27.603Z,5.05
2023-03-03T01:12:19.717Z,4.87
2023-03-03T01:14:49.896Z,4.65
2023-03-03T01:17:18.687Z,4.93
2023-03-03T01:19:46.596Z,4.65
2023-03-03T01:22:13.746Z,4.95
2023-03-03T01:24:40.869Z,4.68
2023-03-03T01:27:08.512Z,4.38
2023-03-03T01:30:10.067Z,4.43
2023-03-03T01:36:04.876Z,4.90
2023-03-03T01:39:00.379Z,4.32
2023-03-03T01:41:46.410Z,4.25
2023-03-03T01:44:17.565Z,3.97
2023-03-03T01:47:21.740Z,3.95
2023-03-03T01:49:56.436Z,4.30
2023-03-03T01:52:33.814Z,4.15
2023-03-03T01:55:13.380Z,4.03
2023-03-03T01:57:45.316Z,4.35
2023-03-03T02:00:25.714Z,3.90
2023-03-03T02:03:21.843Z,3.88
2023-03-03T02:05:51.309Z,4.00
2023-03-03T02:08:24.944Z,4.00
2023-03-03T02:11:22.603Z,3.60
2023-03-03T02:14:18.805Z,3.92
2023-03-03T02:16:57.018Z,4.05
2023-03-03T02:20:13.193Z,3.85
2023-03-03T02:34:53.497Z,3.40
2023-03-03T02:40:39.489Z,3.40
2023-03-03T02:43:15.828Z,3.90
2023-03-03T02:45:59.192Z,3.00
2023-03-03T02:48:32.073Z,3.55
2023-03-03T02:51:18.466Z,3.38
2023-03-03T02:53:57.281Z,3.22
2023-03-03T02:56:36.935Z,3.70
2023-03-03T02:59:12.673Z,3.13
2023-03-03T03:01:50.918Z,3.40
2023-03-03T03:04:43.100Z,2.90
2023-03-03T03:07:22.236Z,3.13
2023-03-03T03:10:08.246Z,2.80
2023-03-03T03:12:38.873Z,3.08
2023-03-03T03:15:18.525Z,2.95
2023-03-03T03:17:56.047Z,2.90
2023-03-03T03:20:55.167Z,2.67
2023-03-03T03:23:48.273Z,3.05
2023-03-03T03:29:10.620Z,2.83
2023-03-03T03:35:51.588Z,2.88
2023-03-03T03:38:30.082Z,2.53
2023-03-03T03:41:22.769Z,2.90
2023-03-03T03:44:00.898Z,3.10
2023-03-03T03:46:28.532Z,2.47
2023-03-03T03:49:16.122Z,2.75
2023-03-03T03:51:57.049Z,2.65
2023-03-03T03:54:46.273Z,2.60
2023-03-03T03:57:17.568Z,2.80
2023-03-03T03:59:50.921Z,2.50
2023-03-03T04:02:35.413Z,2.42
2023-03-03T04:05:09.536Z,2.53
2023-03-03T04:09:12.069Z,2.60
2023-03-03T04:11:50.573Z,2.47
2023-03-03T04:14:51.363Z,2.38
2023-03-03T04:17:32.792Z,2.47
2023-03-03T04:20:05.997Z,2.30
2023-03-03T04:22:45.813Z,2.70
2023-03-03T04:25:23.701Z,2.33
2023-03-03T04:28:05.224Z,2.40
2023-03-03T04:30:49.412Z,2.70
2023-03-03T04:33:32.385Z,2.72
2023-03-03T04:36:13.563Z,2.53
2023-03-03T04:38:47.808Z,2.60
2023-03-03T04:41:23.558Z,2.30
2023-03-03T04:44:24.222Z,2.40
2023-03-03T04:47:02.051Z,2.42
2023-03-03T05:06:39.109Z,2.30
2023-03-03T05:09:30.269Z,2.25
2023-03-03T05:12:24.730Z,2.50
2023-03-03T05:15:05.330Z,2.42
2023-03-03T05:18:06.539Z,2.35
2023-03-03T05:21:00.164Z,2.42
2023-03-03T05:23:50.206Z,2.15
2023-03-03T05:26:37.994Z,2.63
2023-03-03T19:27:38.023Z,3.20
2023-03-03T19:30:55.330Z,2.95
2023-03-03T19:45:14.964Z,2.88
2023-03-03T19:48:00.169Z,3.20
2023-03-03T19:51:12.414Z,2.78
2023-03-03T20:01:53.676Z,3.47
2023-03-03T20:04:57.337Z,2.90
2023-03-03T20:07:53.168Z,3.22
2023-03-03T20:10:53.039Z,3.30
2023-03-03T20:28:23.211Z,3.03
2023-03-03T20:31:41.068Z,3.38
2023-03-03T20:34:57.558Z,3.35
2023-03-03T20:37:39.521Z,3.50
2023-03-03T20:40:42.412Z,3.50
2023-03-03T20:43:24.838Z,3.67
2023-03-03T20:49:24.504Z,3.58
2023-03-03T20:52:08.321Z,3.28
2023-03-03T20:59:26.917Z,3.80
2023-03-03T21:02:29.683Z,3.70
2023-03-03T21:05:34.409Z,3.60
2023-03-03T21:08:45.399Z,3.95
2023-03-03T21:21:04.524Z,3.97
2023-03-03T21:27:27.556Z,4.22
2023-03-03T21:30:19.834Z,4.18
2023-03-03T21:32:59.510Z,4.07
2023-03-03T21:35:42.636Z,4.13
2023-03-03T21:45:18.055Z,4.07
2023-03-03T21:50:49.725Z,4.60
2023-03-03T21:53:25.608Z,4.53
2023-03-03T21:56:03.353Z,4.47
2023-03-03T21:59:27.602Z,4.25
2023-03-03T22:13:16.428Z,4.13
2023-03-03T22:28:17.650Z,4.07
2023-03-03T22:51:00.994Z,4.43
2023-03-03T22:53:51.017Z,4.55
2023-03-03T23:07:48.038Z,4.40
2023-03-03T23:17:43.821Z,4.30
2023-03-03T23:23:49.885Z,4.28
2023-03-03T23:26:17.284Z,4.10
2023-03-03T23:28:49.829Z,4.10
2023-03-03T23:31:17.671Z,3.88
2023-03-03T23:33:50.860Z,4.45
2023-03-03T23:36:29.884Z,4.07
2023-03-03T23:39:00.218Z,4.45
2023-03-03T23:41:41.471Z,4.40
2023-03-03T23:47:34.705Z,4.38
2023-03-03T23:50:08.798Z,4.32
2023-03-03T23:52:39.172Z,4.30
2023-03-03T23:55:07.396Z,3.85
